Time;durP1;ratioP1;P1;durP2;ratioP2;P2;SDS_P1;SDS_P2;PMS_P1;PMS_P2;Temp;Humidity;BMP_temperature;BMP_pressure;BME280_temperature;BME280_humidity;BME280_pressure;Samples;Min_cycle;Max_cycle;Signal;HPM_P1;HPM_P2
2023/01/20 00:01:45;;;;;;;;;;;;;;;7.30;53.54;98780.16;4470397;31;33968;-68
2023/01/20 00:04:12;;;;;;;;;;;;;;;7.54;52.69;98790.72;4473010;32;32778;-67
2023/01/20 00:06:39;;;;;;;;;;;;;;;7.33;54.38;98784.41;4475564;32;33611;-67
2023/01/20 00:09:07;;;;;;;;;;;;;;;7.66;52.87;98784.44;4472602;31;35491;-67
2023/01/20 00:11:34;;;;;;;;;;;;;;;7.96;51.79;98767.03;4474676;32;34036;-67
2023/01/20 00:14:01;;;;;;;;;;;;;;;6.84;54.63;98770.34;4478081;31;33401;-67
2023/01/20 00:16:30;;;;;;;;;;;;;;;7.38;53.42;98760.91;4473047;32;33823;-68
2023/01/20 00:18:58;;;;;;;;;;;;;;;7.41;53.52;98761.53;4475553;32;34223;-67
2023/01/20 00:21:25;;;;;;;;;;;;;;;7.67;52.74;98753.31;4478395;32;35115;-67
2023/01/20 00:23:52;;;;;;;;;;;;;;;6.81;54.90;98769.72;4475396;32;33121;-67
2023/01/20 00:26:21;;;;;;;;;;;;;;;7.05;54.50;98778.50;4471599;32;35254;-66
2023/01/20 00:28:48;;;;;;;;;;;;;;;6.98;54.68;98772.78;4473371;32;34095;-66
2023/01/20 00:31:26;;;;;;;;;;;;;;;6.80;55.92;98776.81;4475291;32;32994;-66
2023/01/20 00:33:54;;;;;;;;;;;;;;;6.37;56.81;98779.16;4476571;32;33366;-66
2023/01/20 00:36:22;;;;;;;;;;;;;;;6.47;56.57;98786.34;4469554;32;33990;-65
2023/01/20 00:38:49;;;;;;;;;;;;;;;7.17;53.87;98793.53;4465193;32;34144;-66
2023/01/20 00:41:16;;;;;;;;;;;;;;;6.97;54.91;98812.84;4471997;32;34263;-67
2023/01/20 00:43:44;;;;;;;;;;;;;;;6.81;56.98;98821.09;4471662;32;34208;-65
2023/01/20 00:46:11;;;;;;;;;;;;;;;7.44;53.58;98822.53;4480556;32;33890;-67
2023/01/20 00:48:38;;;;;;;;;;;;;;;7.60;52.93;98832.00;4480073;32;35188;-66
2023/01/20 00:51:06;;;;;;;;;;;;;;;8.20;51.14;98830.00;4471785;32;34434;-68
2023/01/20 00:53:33;;;;;;;;;;;;;;;7.93;51.76;98831.22;4481269;32;33496;-67
2023/01/20 00:56:01;;;;;;;;;;;;;;;8.36;50.42;98817.13;4481624;31;33964;-66
2023/01/20 00:58:28;;;;;;;;;;;;;;;8.06;51.38;98801.78;4484102;32;35522;-68
2023/01/20 01:00:57;;;;;;;;;;;;;;;8.23;50.85;98806.59;4478645;32;34340;-66
2023/01/20 01:03:26;;;;;;;;;;;;;;;8.16;50.90;98811.59;4483991;32;33549;-67
2023/01/20 01:05:55;;;;;;;;;;;;;;;8.28;50.23;98803.56;4484240;32;34268;-66
2023/01/20 01:08:22;;;;;;;;;;;;;;;8.75;48.88;98797.06;4469523;32;33922;-66
2023/01/20 01:10:54;;;;;;;;;;;;;;;8.74;48.86;98787.38;4473163;32;33795;-66
2023/01/20 01:13:21;;;;;;;;;;;;;;;8.45;49.62;98781.75;4478516;32;33263;-66
2023/01/20 01:15:48;;;;;;;;;;;;;;;8.60;49.00;98777.84;4476575;32;34034;-67
2023/01/20 01:18:16;;;;;;;;;;;;;;;8.75;48.42;98780.22;4481715;32;33458;-67
2023/01/20 01:20:43;;;;;;;;;;;;;;;8.65;49.01;98771.28;4447580;32;818273;-67
2023/01/20 01:23:11;;;;;;;;;;;;;;;8.07;50.38;98766.16;4474130;32;33459;-67
2023/01/20 01:25:38;;;;;;;;;;;;;;;8.35;49.81;98770.12;4472810;32;34146;-68
2023/01/20 01:28:05;;;;;;;;;;;;;;;8.23;49.69;98761.28;4475129;32;35527;-68
2023/01/20 01:30:33;;;;;;;;;;;;;;;8.60;48.59;98756.50;4479628;32;35243;-66
2023/01/20 01:33:00;;;;;;;;;;;;;;;8.46;48.90;98746.13;4475698;32;33732;-69
2023/01/20 01:35:27;;;;;;;;;;;;;;;8.37;49.43;98752.16;4473838;32;33850;-68
2023/01/20 01:37:54;;;;;;;;;;;;;;;8.44;49.09;98755.22;4481321;32;34371;-68
2023/01/20 01:40:22;;;;;;;;;;;;;;;8.44;49.12;98749.88;4481860;32;33922;-69
2023/01/20 01:42:49;;;;;;;;;;;;;;;8.51;49.19;98745.75;4479897;32;33224;-69
2023/01/20 01:45:18;;;;;;;;;;;;;;;8.34;49.51;98742.59;4477344;32;35241;-67
2023/01/20 01:47:47;;;;;;;;;;;;;;;8.48;49.17;98743.34;4474430;32;34335;-68
2023/01/20 01:50:16;;;;;;;;;;;;;;;8.51;48.56;98749.25;4471130;32;33780;-68
2023/01/20 01:52:44;;;;;;;;;;;;;;;8.69;48.05;98743.37;4459888;32;32125;-66
2023/01/20 01:55:12;;;;;;;;;;;;;;;8.58;48.44;98730.94;4479609;32;34074;-68
2023/01/20 01:57:40;;;;;;;;;;;;;;;8.42;49.22;98725.16;4464052;32;34630;-67
2023/01/20 02:00:07;;;;;;;;;;;;;;;8.13;49.42;98728.34;4452372;32;35172;-67
2023/01/20 02:02:40;;;;;;;;;;;;;;;8.11;49.54;98725.81;4468460;32;33252;-71
2023/01/20 02:05:08;;;;;;;;;;;;;;;8.14;49.71;98722.88;4481604;32;35132;-69
2023/01/20 02:07:35;;;;;;;;;;;;;;;7.60;51.63;98734.31;4460172;32;34103;-67
2023/01/20 02:10:02;;;;;;;;;;;;;;;7.96;50.49;98721.72;4475507;32;33852;-67
2023/01/20 02:12:30;;;;;;;;;;;;;;;7.86;50.53;98724.25;4478220;32;32810;-68
2023/01/20 02:14:58;;;;;;;;;;;;;;;7.99;50.71;98723.28;4467883;32;34108;-67
2023/01/20 02:17:32;;;;;;;;;;;;;;;8.13;49.54;98720.37;4454599;32;34324;-67
2023/01/20 02:20:29;;;;;;;;;;;;;;;8.00;50.05;98728.50;4469105;32;34378;-68
2023/01/20 02:22:56;;;;;;;;;;;;;;;8.17;49.55;98735.13;4454043;32;33720;-67
2023/01/20 02:25:24;;;;;;;;;;;;;;;7.50;51.29;98721.84;4474350;32;33810;-68
2023/01/20 02:27:57;;;;;;;;;;;;;;;8.29;48.70;98733.28;4473280;32;34367;-71
2023/01/20 02:30:24;;;;;;;;;;;;;;;8.35;48.72;98736.31;4453482;32;34272;-68
2023/01/20 02:32:52;;;;;;;;;;;;;;;8.15;49.36;98735.25;4474997;32;33199;-65
2023/01/20 02:35:21;;;;;;;;;;;;;;;8.16;49.30;98739.62;4473305;32;34477;-67
2023/01/20 02:37:54;;;;;;;;;;;;;;;8.34;49.04;98739.91;4465420;32;35578;-68
2023/01/20 02:40:25;;;;;;;;;;;;;;;8.36;49.26;98731.81;4477740;32;34447;-68
2023/01/20 02:43:02;;;;;;;;;;;;;;;7.75;52.58;98734.09;4463518;32;33512;-67
2023/01/20 02:45:47;;;;;;;;;;;;;;;8.13;50.35;98721.19;4453063;32;33480;-68
2023/01/20 02:48:17;;;;;;;;;;;;;;;8.23;50.04;98717.78;4480856;32;33940;-70
2023/01/20 02:50:51;;;;;;;;;;;;;;;7.99;51.09;98731.25;4474652;32;34034;-66
2023/01/20 02:53:18;;;;;;;;;;;;;;;8.19;50.60;98725.19;4467963;32;33106;-65
2023/01/20 02:55:46;;;;;;;;;;;;;;;7.95;50.80;98725.34;4466392;32;35985;-66
2023/01/20 02:58:18;;;;;;;;;;;;;;;8.00;50.80;98732.97;4474792;32;34954;-69
2023/01/20 03:00:51;;;;;;;;;;;;;;;8.11;50.17;98728.47;4470570;32;33184;-68
2023/01/20 03:03:22;;;;;;;;;;;;;;;8.01;50.88;98726.69;4454740;32;34349;-67
2023/01/20 03:05:51;;;;;;;;;;;;;;;8.36;49.39;98724.66;4463271;32;34172;-66
2023/01/20 03:08:19;;;;;;;;;;;;;;;8.03;50.86;98732.75;4464674;32;35626;-65
2023/01/20 03:10:46;;;;;;;;;;;;;;;7.60;51.59;98728.16;4465534;32;32671;-67
2023/01/20 03:13:31;;;;;;;;;;;;;;;7.85;50.95;98732.38;4467276;32;32128;-67
2023/01/20 03:16:05;;;;;;;;;;;;;;;7.97;51.90;98736.75;4459557;32;34938;-67
2023/01/20 03:18:33;;;;;;;;;;;;;;;7.86;50.91;98750.91;4473205;32;34247;-68
2023/01/20 03:21:02;;;;;;;;;;;;;;;8.48;49.14;98748.66;4468712;32;32799;-66
2023/01/20 03:23:30;;;;;;;;;;;;;;;8.45;49.71;98752.44;4468051;32;33013;-66
2023/01/20 03:25:57;;;;;;;;;;;;;;;8.18;50.25;98747.47;4469652;32;34167;-67
2023/01/20 03:28:24;;;;;;;;;;;;;;;8.33;49.87;98748.06;4450868;32;34275;-68
2023/01/20 03:30:52;;;;;;;;;;;;;;;8.56;49.57;98744.37;4471589;32;33769;-67
2023/01/20 03:33:19;;;;;;;;;;;;;;;8.74;48.83;98757.19;4455208;32;32976;-66
2023/01/20 03:35:47;;;;;;;;;;;;;;;8.88;48.48;98754.22;4475142;32;35254;-66
2023/01/20 03:38:14;;;;;;;;;;;;;;;8.86;48.30;98759.69;4478510;32;33103;-67
2023/01/20 03:40:45;;;;;;;;;;;;;;;8.96;48.19;98757.09;4477054;32;34301;-67
2023/01/20 03:43:19;;;;;;;;;;;;;;;8.94;48.59;98755.53;4472739;32;33590;-67
2023/01/20 03:45:52;;;;;;;;;;;;;;;8.69;48.90;98748.72;4454314;32;32384;-66
2023/01/20 03:48:29;;;;;;;;;;;;;;;8.80;48.40;98748.69;4468140;32;34695;-67
2023/01/20 03:50:57;;;;;;;;;;;;;;;8.83;48.00;98751.09;4470460;32;33988;-67
2023/01/20 03:53:25;;;;;;;;;;;;;;;8.78;48.33;98754.12;4476214;32;33318;-68
2023/01/20 03:55:55;;;;;;;;;;;;;;;8.84;48.29;98756.28;4469762;31;34881;-66
2023/01/20 03:58:29;;;;;;;;;;;;;;;8.80;48.45;98754.84;4461281;32;33355;-69
2023/01/20 04:00:56;;;;;;;;;;;;;;;8.40;49.18;98750.13;4457896;32;35481;-67
2023/01/20 04:03:25;;;;;;;;;;;;;;;8.19;49.46;98751.84;4474491;32;33104;-70
2023/01/20 04:05:53;;;;;;;;;;;;;;;8.53;48.83;98739.28;4465656;32;34172;-70
2023/01/20 04:08:21;;;;;;;;;;;;;;;8.62;48.87;98743.87;4453909;32;34413;-71
2023/01/20 04:10:49;;;;;;;;;;;;;;;8.52;48.89;98750.94;4473101;32;34059;-68
2023/01/20 04:13:16;;;;;;;;;;;;;;;8.78;48.00;98755.94;4472917;32;33250;-68
2023/01/20 04:15:43;;;;;;;;;;;;;;;8.85;47.64;98752.63;4461122;32;35140;-67
2023/01/20 04:18:12;;;;;;;;;;;;;;;8.72;48.00;98754.62;4458483;32;34521;-70
2023/01/20 04:20:39;;;;;;;;;;;;;;;8.86;47.80;98746.34;4470910;32;34761;-69
2023/01/20 04:23:07;;;;;;;;;;;;;;;8.73;48.46;98744.81;4467709;32;34234;-67
2023/01/20 04:25:34;;;;;;;;;;;;;;;8.88;47.86;98751.53;4466510;32;34045;-68
2023/01/20 04:28:02;;;;;;;;;;;;;;;8.81;48.15;98753.03;4472059;32;34260;-67
2023/01/20 04:30:29;;;;;;;;;;;;;;;8.86;47.64;98753.50;4480269;31;34249;-67
2023/01/20 04:32:56;;;;;;;;;;;;;;;8.28;49.90;98760.91;4481556;32;33089;-67
2023/01/20 04:35:23;;;;;;;;;;;;;;;8.61;48.80;98762.69;4468362;31;35274;-68
2023/01/20 04:37:51;;;;;;;;;;;;;;;8.63;48.75;98758.94;4476274;32;34564;-68
2023/01/20 04:40:18;;;;;;;;;;;;;;;8.66;48.60;98751.63;4478878;32;33828;-66
2023/01/20 04:42:45;;;;;;;;;;;;;;;8.73;48.58;98760.81;4478883;32;33137;-67
2023/01/20 04:45:13;;;;;;;;;;;;;;;8.78;48.47;98764.78;4479073;32;33976;-66
2023/01/20 04:47:41;;;;;;;;;;;;;;;8.72;49.26;98767.13;4470865;32;33900;-66
2023/01/20 04:50:09;;;;;;;;;;;;;;;8.93;48.34;98765.34;4475003;32;34432;-67
2023/01/20 04:52:36;;;;;;;;;;;;;;;8.57;49.36;98751.44;4479429;32;33533;-68
2023/01/20 04:55:04;;;;;;;;;;;;;;;9.03;48.28;98736.06;4469556;32;33527;-67
2023/01/20 04:57:31;;;;;;;;;;;;;;;8.93;47.92;98730.66;4474237;32;35394;-67
2023/01/20 04:59:58;;;;;;;;;;;;;;;8.85;48.78;98722.44;4477516;32;33922;-69
2023/01/20 05:02:26;;;;;;;;;;;;;;;8.79;48.91;98712.28;4474373;32;33281;-67
2023/01/20 05:04:53;;;;;;;;;;;;;;;8.24;50.42;98706.16;4471770;32;32791;-67
2023/01/20 05:07:20;;;;;;;;;;;;;;;8.35;49.95;98706.13;4475255;31;36368;-67
2023/01/20 05:09:48;;;;;;;;;;;;;;;8.52;48.49;98700.28;4479378;32;34200;-70
2023/01/20 05:12:15;;;;;;;;;;;;;;;8.36;49.22;98700.66;4466871;32;33366;-67
2023/01/20 05:14:42;;;;;;;;;;;;;;;8.38;48.69;98695.25;4475809;32;35634;-67
2023/01/20 05:17:09;;;;;;;;;;;;;;;8.09;49.39;98697.56;4477411;32;34193;-67
2023/01/20 05:19:37;;;;;;;;;;;;;;;7.81;49.89;98712.28;4467990;32;35245;-68
2023/01/20 05:22:04;;;;;;;;;;;;;;;7.55;50.31;98711.69;4475726;32;33561;-71
2023/01/20 05:24:31;;;;;;;;;;;;;;;7.44;51.49;98717.84;4472968;32;34142;-67
2023/01/20 05:26:59;;;;;;;;;;;;;;;7.47;52.26;98713.13;4470926;32;33136;-67
2023/01/20 05:29:26;;;;;;;;;;;;;;;7.37;53.24;98722.81;4473722;31;34118;-67
2023/01/20 05:31:54;;;;;;;;;;;;;;;7.61;52.14;98727.19;4470697;32;33829;-68
2023/01/20 05:34:21;;;;;;;;;;;;;;;7.69;52.41;98716.75;4478137;32;33849;-67
2023/01/20 05:36:52;;;;;;;;;;;;;;;8.25;50.76;98710.50;4473509;31;35391;-66
2023/01/20 05:39:20;;;;;;;;;;;;;;;7.97;51.90;98707.44;4478110;32;34694;-66
2023/01/20 05:41:48;;;;;;;;;;;;;;;8.40;50.52;98718.13;4473410;32;32469;-68
2023/01/20 05:44:15;;;;;;;;;;;;;;;8.51;49.79;98719.94;4477139;32;34146;-66
2023/01/20 05:46:42;;;;;;;;;;;;;;;8.36;49.98;98713.16;4472189;32;34872;-67
2023/01/20 05:49:11;;;;;;;;;;;;;;;8.24;50.37;98723.00;4469937;32;34142;-67
2023/01/20 05:51:38;;;;;;;;;;;;;;;8.28;50.64;98728.91;4470750;32;33832;-68
2023/01/20 05:54:05;;;;;;;;;;;;;;;8.32;50.88;98733.03;4475773;32;34253;-66
2023/01/20 05:56:33;;;;;;;;;;;;;;;8.30;51.90;98722.50;4478879;32;34263;-69
2023/01/20 05:59:00;;;;;;;;;;;;;;;8.28;51.47;98732.44;4476507;32;34025;-66
2023/01/20 06:01:27;;;;;;;;;;;;;;;8.47;51.29;98739.78;4468338;32;34362;-68
2023/01/20 06:03:55;;;;;;;;;;;;;;;8.78;50.36;98727.44;4477248;32;34085;-66
2023/01/20 06:06:22;;;;;;;;;;;;;;;8.79;50.22;98734.47;4472361;32;32867;-65
2023/01/20 06:08:50;;;;;;;;;;;;;;;8.70;50.26;98719.25;4472874;32;34091;-67
2023/01/20 06:11:18;;;;;;;;;;;;;;;8.75;49.96;98721.53;4475369;32;33283;-67
2023/01/20 06:13:46;;;;;;;;;;;;;;;9.04;48.50;98711.06;4463572;31;34221;-67
2023/01/20 06:16:15;;;;;;;;;;;;;;;9.29;47.76;98715.16;4478453;32;34295;-67
2023/01/20 06:18:43;;;;;;;;;;;;;;;9.08;47.94;98718.69;4468931;32;34277;-65
2023/01/20 06:21:10;;;;;;;;;;;;;;;9.28;47.79;98719.66;4478314;32;33627;-66
2023/01/20 06:23:37;;;;;;;;;;;;;;;9.28;47.24;98716.16;4470649;32;34888;-66
2023/01/20 06:26:05;;;;;;;;;;;;;;;9.06;48.53;98717.97;4474082;32;33999;-67
2023/01/20 06:28:32;;;;;;;;;;;;;;;9.35;47.65;98719.97;4469627;32;32900;-66
2023/01/20 06:31:13;;;;;;;;;;;;;;;9.27;48.15;98725.97;4471825;32;31978;-66
2023/01/20 06:33:41;;;;;;;;;;;;;;;9.12;48.14;98734.44;4478788;32;35363;-66
2023/01/20 06:36:09;;;;;;;;;;;;;;;9.13;48.84;98728.97;4479677;31;33882;-66
2023/01/20 06:38:36;;;;;;;;;;;;;;;9.30;47.95;98723.03;4467133;32;34121;-66
2023/01/20 06:41:06;;;;;;;;;;;;;;;9.32;48.01;98718.41;4466035;32;31863;-67
2023/01/20 06:43:34;;;;;;;;;;;;;;;9.27;48.62;98717.94;4472503;32;33971;-66
2023/01/20 06:46:02;;;;;;;;;;;;;;;9.21;48.02;98715.84;4472157;32;34854;-66
2023/01/20 06:48:29;;;;;;;;;;;;;;;9.35;47.95;98721.81;4474376;32;33995;-67
2023/01/20 06:51:01;;;;;;;;;;;;;;;9.23;48.71;98737.88;4467156;32;33499;-66
2023/01/20 06:53:28;;;;;;;;;;;;;;;9.15;48.72;98734.16;4469179;32;34137;-66
2023/01/20 06:55:56;;;;;;;;;;;;;;;8.95;48.97;98739.38;4473400;32;32726;-65
2023/01/20 06:58:24;;;;;;;;;;;;;;;9.16;48.57;98734.06;4472128;32;33920;-65
2023/01/20 07:00:51;;;;;;;;;;;;;;;9.32;47.67;98730.91;4473098;32;31537;-66
2023/01/20 07:03:19;;;;;;;;;;;;;;;9.31;47.80;98731.91;4474707;32;33946;-66
2023/01/20 07:05:58;;;;;;;;;;;;;;;9.28;48.26;98740.19;4474376;32;33157;-65
2023/01/20 07:08:25;;;;;;;;;;;;;;;9.02;49.74;98745.03;4473616;32;34374;-65
2023/01/20 07:10:53;;;;;;;;;;;;;;;9.26;48.28;98740.28;4476208;31;31948;-66
2023/01/20 07:13:20;;;;;;;;;;;;;;;8.82;50.10;98752.88;4473142;32;34323;-66
2023/01/20 07:15:47;;;;;;;;;;;;;;;8.82;50.25;98757.38;4469708;32;35247;-64
2023/01/20 07:18:14;;;;;;;;;;;;;;;9.21;49.28;98755.00;4482103;32;33835;-65
2023/01/20 07:20:42;;;;;;;;;;;;;;;9.26;49.39;98758.16;4477565;31;34679;-64
2023/01/20 07:23:10;;;;;;;;;;;;;;;9.53;48.16;98754.91;4473066;32;32877;-65
2023/01/20 07:25:38;;;;;;;;;;;;;;;9.36;49.01;98758.22;4472756;31;33144;-64
2023/01/20 07:28:05;;;;;;;;;;;;;;;9.50;48.44;98763.19;4480857;32;32698;-64
2023/01/20 07:30:32;;;;;;;;;;;;;;;9.62;48.33;98762.16;4472915;32;33164;-65
2023/01/20 07:33:00;;;;;;;;;;;;;;;9.63;48.53;98769.19;4472635;31;34448;-69
2023/01/20 07:35:27;;;;;;;;;;;;;;;9.68;47.70;98758.94;4476140;31;33974;-68
2023/01/20 07:37:55;;;;;;;;;;;;;;;9.44;48.90;98759.25;4477178;32;34370;-69
2023/01/20 07:40:22;;;;;;;;;;;;;;;9.72;47.90;98762.19;4478947;31;33192;-67
2023/01/20 07:42:50;;;;;;;;;;;;;;;9.56;48.26;98763.50;4467047;32;34908;-68
2023/01/20 07:45:19;;;;;;;;;;;;;;;9.83;47.20;98748.75;4476386;32;35639;-67
2023/01/20 07:47:46;;;;;;;;;;;;;;;9.53;47.88;98757.59;4480348;32;35155;-67
2023/01/20 07:50:13;;;;;;;;;;;;;;;9.45;48.13;98760.94;4474526;32;33144;-67
2023/01/20 07:52:42;;;;;;;;;;;;;;;9.32;48.52;98770.97;4474709;32;34404;-67
2023/01/20 07:55:09;;;;;;;;;;;;;;;9.21;49.34;98765.69;4479377;31;34344;-68
2023/01/20 07:57:36;;;;;;;;;;;;;;;9.31;48.92;98767.47;4482526;31;34090;-70
2023/01/20 08:00:04;;;;;;;;;;;;;;;9.49;47.92;98770.38;4467639;32;33420;-66
2023/01/20 08:02:38;;;;;;;;;;;;;;;9.36;49.30;98772.41;4478060;32;34216;-66
2023/01/20 08:05:06;;;;;;;;;;;;;;;8.97;50.52;98782.81;4473319;32;34499;-66
2023/01/20 08:07:33;;;;;;;;;;;;;;;9.59;49.07;98786.44;4480528;32;34207;-65
2023/01/20 08:10:01;;;;;;;;;;;;;;;9.55;49.34;98783.19;4475972;32;34333;-66
2023/01/20 08:12:28;;;;;;;;;;;;;;;9.75;49.01;98786.81;4471285;32;33981;-66
2023/01/20 08:14:56;;;;;;;;;;;;;;;9.67;48.85;98796.50;4467047;32;35533;-66
2023/01/20 08:17:23;;;;;;;;;;;;;;;9.45;49.23;98793.00;4468526;32;32989;-67
2023/01/20 08:19:50;;;;;;;;;;;;;;;9.82;47.69;98799.66;4467834;31;32609;-65
2023/01/20 08:22:17;;;;;;;;;;;;;;;9.73;48.42;98799.50;4465604;32;34112;-66
2023/01/20 08:24:45;;;;;;;;;;;;;;;9.86;47.55;98793.09;4465136;32;34001;-66
2023/01/20 08:27:12;;;;;;;;;;;;;;;9.88;47.35;98812.50;4469679;32;35077;-67
2023/01/20 08:29:39;;;;;;;;;;;;;;;9.76;47.97;98801.91;4478441;32;34496;-66
2023/01/20 08:32:07;;;;;;;;;;;;;;;9.79;48.32;98795.41;4475349;32;34402;-67
2023/01/20 08:34:34;;;;;;;;;;;;;;;9.79;48.62;98803.44;4469494;32;35077;-66
2023/01/20 08:37:01;;;;;;;;;;;;;;;9.92;47.78;98797.88;4468261;32;35538;-66
2023/01/20 08:39:29;;;;;;;;;;;;;;;9.84;47.92;98805.72;4466530;31;33112;-66
2023/01/20 08:41:56;;;;;;;;;;;;;;;9.86;47.61;98801.94;4466840;32;33557;-66
2023/01/20 08:44:23;;;;;;;;;;;;;;;9.57;49.62;98805.31;4469536;32;33832;-66
2023/01/20 08:46:53;;;;;;;;;;;;;;;9.89;47.90;98803.50;4474614;32;35291;-67
2023/01/20 08:49:22;;;;;;;;;;;;;;;9.83;48.17;98810.22;4474851;32;33952;-66
2023/01/20 08:51:49;;;;;;;;;;;;;;;9.94;47.70;98801.28;4467770;32;34080;-66
2023/01/20 08:54:17;;;;;;;;;;;;;;;9.84;48.36;98803.06;4473353;31;35711;-66
2023/01/20 08:56:44;;;;;;;;;;;;;;;9.92;47.48;98809.44;4478323;32;34579;-66
2023/01/20 08:59:11;;;;;;;;;;;;;;;9.79;48.05;98804.31;4483156;32;33083;-65
2023/01/20 09:01:38;;;;;;;;;;;;;;;9.47;49.41;98811.53;4479837;32;34475;-66
2023/01/20 09:04:06;;;;;;;;;;;;;;;9.42;49.36;98803.94;4477484;32;34495;-66
2023/01/20 09:06:52;;;;;;;;;;;;;;;9.68;48.60;98812.37;4482052;31;34026;-66
2023/01/20 09:09:20;;;;;;;;;;;;;;;9.71;48.56;98817.47;4480006;32;33222;-66
2023/01/20 09:11:50;;;;;;;;;;;;;;;9.63;48.69;98814.63;4480936;32;33877;-66
2023/01/20 09:14:22;;;;;;;;;;;;;;;9.47;49.29;98815.09;4480951;31;34674;-66
2023/01/20 09:16:49;;;;;;;;;;;;;;;9.48;49.53;98807.91;4476887;31;34386;-67
2023/01/20 09:19:16;;;;;;;;;;;;;;;9.59;48.94;98799.81;4476267;32;33267;-66
2023/01/20 09:21:44;;;;;;;;;;;;;;;9.62;48.72;98796.87;4479802;32;35019;-66
2023/01/20 09:24:11;;;;;;;;;;;;;;;9.69;48.76;98798.03;4470246;32;33859;-66
2023/01/20 09:26:39;;;;;;;;;;;;;;;9.78;48.65;98796.41;4473894;31;35278;-66
2023/01/20 09:29:10;;;;;;;;;;;;;;;9.49;49.40;98786.41;4478486;32;34177;-65
2023/01/20 09:31:38;;;;;;;;;;;;;;;9.63;48.32;98785.22;4476598;31;34019;-67
2023/01/20 09:34:06;;;;;;;;;;;;;;;9.62;48.77;98774.66;4473541;32;34243;-66
2023/01/20 09:36:33;;;;;;;;;;;;;;;9.51;49.59;98768.44;4478063;31;33219;-66
2023/01/20 09:44:43;;;;;;;;;;;;;;;9.90;48.84;98757.94;4479069;32;35181;-66
2023/01/20 09:47:22;;;;;;;;;;;;;;;9.88;48.59;98756.38;4478460;32;34339;-67
2023/01/20 09:53:15;;;;;;;;;;;;;;;9.74;49.33;98761.09;4469944;32;34178;-65
2023/01/20 09:55:48;;;;;;;;;;;;;;;9.86;49.17;98761.00;4473569;32;34062;-66
2023/01/20 09:58:28;;;;;;;;;;;;;;;10.10;48.56;98758.84;4469668;32;34138;-66
2023/01/20 10:01:01;;;;;;;;;;;;;;;10.14;48.52;98754.91;4474891;32;33109;-66
2023/01/20 10:03:35;;;;;;;;;;;;;;;10.00;49.36;98744.59;4479800;32;34335;-66
2023/01/20 10:06:05;;;;;;;;;;;;;;;9.95;49.12;98744.16;4480142;32;34292;-68
2023/01/20 10:08:35;;;;;;;;;;;;;;;10.33;48.18;98731.91;4472699;32;34423;-66
2023/01/20 10:11:04;;;;;;;;;;;;;;;10.24;48.40;98721.03;4459363;32;34551;-66
2023/01/20 10:13:32;;;;;;;;;;;;;;;10.10;48.80;98712.53;4472859;31;33688;-68
2023/01/20 10:16:01;;;;;;;;;;;;;;;10.21;48.14;98713.28;4468065;32;33918;-68
2023/01/20 10:18:34;;;;;;;;;;;;;;;10.38;47.61;98705.59;4478720;32;34684;-69
2023/01/20 10:21:07;;;;;;;;;;;;;;;10.14;48.13;98696.06;4469085;32;34050;-69
2023/01/20 10:23:41;;;;;;;;;;;;;;;10.03;48.63;98690.84;4481350;32;34063;-69
2023/01/20 10:26:11;;;;;;;;;;;;;;;10.11;48.10;98693.72;4485231;32;34084;-70
2023/01/20 10:28:54;;;;;;;;;;;;;;;10.24;47.20;98690.75;4472791;32;34479;-69
2023/01/20 10:31:25;;;;;;;;;;;;;;;10.08;47.59;98691.31;4474082;32;33087;-69
2023/01/20 10:33:54;;;;;;;;;;;;;;;10.02;48.28;98700.72;4471385;32;35203;-70
2023/01/20 10:36:25;;;;;;;;;;;;;;;10.09;47.13;98692.16;4477018;32;34352;-71
2023/01/20 10:38:53;;;;;;;;;;;;;;;9.57;48.88;98693.09;4477376;32;34548;-69
2023/01/20 10:41:23;;;;;;;;;;;;;;;9.89;47.92;98691.25;4466368;32;32440;-69
2023/01/20 10:43:50;;;;;;;;;;;;;;;9.44;48.98;98694.31;4474111;32;34003;-69
2023/01/20 10:46:29;;;;;;;;;;;;;;;9.49;49.20;98698.25;4483070;32;34084;-70
2023/01/20 10:49:13;;;;;;;;;;;;;;;9.30;49.87;98704.34;4482482;32;35112;-66
2023/01/20 10:51:58;;;;;;;;;;;;;;;9.21;49.63;98707.81;4473968;32;34378;-66
2023/01/20 10:54:36;;;;;;;;;;;;;;;8.82;50.12;98704.84;4455290;32;34016;-68
2023/01/20 10:57:04;;;;;;;;;;;;;;;8.44;51.71;98709.88;4473076;32;35342;-67
2023/01/20 10:59:42;;;;;;;;;;;;;;;8.61;51.31;98720.84;4458983;32;34087;-68
2023/01/20 11:02:29;;;;;;;;;;;;;;;8.96;50.13;98714.41;4471106;32;33390;-65
2023/01/20 11:04:57;;;;;;;;;;;;;;;9.16;49.88;98715.38;4469215;32;34205;-66
2023/01/20 11:07:25;;;;;;;;;;;;;;;8.59;51.18;98709.44;4462501;31;36319;-67
2023/01/20 11:09:52;;;;;;;;;;;;;;;8.50;51.88;98710.22;4477562;31;32720;-66
2023/01/20 11:12:24;;;;;;;;;;;;;;;8.82;51.52;98709.34;4478281;32;33531;-68
2023/01/20 11:14:52;;;;;;;;;;;;;;;8.49;52.36;98716.53;4470697;32;34198;-67
2023/01/20 11:17:20;;;;;;;;;;;;;;;7.84;54.67;98710.22;4480581;32;35865;-67
2023/01/20 11:19:53;;;;;;;;;;;;;;;8.43;52.55;98705.53;4475283;32;35435;-66
2023/01/20 11:22:25;;;;;;;;;;;;;;;8.55;52.27;98702.69;4470179;32;33511;-65
2023/01/20 11:24:53;;;;;;;;;;;;;;;8.26;53.40;98694.41;4459659;32;33803;-71
2023/01/20 11:27:21;;;;;;;;;;;;;;;8.93;51.12;98687.12;4481989;32;34322;-67
2023/01/20 11:29:49;;;;;;;;;;;;;;;9.10;50.96;98679.34;4471830;32;34903;-67
2023/01/20 11:32:30;;;;;;;;;;;;;;;8.81;51.83;98675.66;4462088;32;34358;-67
2023/01/20 11:34:58;;;;;;;;;;;;;;;9.20;50.51;98668.72;4472143;32;33668;-68
2023/01/20 11:37:26;;;;;;;;;;;;;;;8.67;52.50;98671.50;4471706;32;35162;-67
2023/01/20 11:39:59;;;;;;;;;;;;;;;9.39;49.91;98657.31;4471002;32;34386;-66
2023/01/20 11:42:27;;;;;;;;;;;;;;;9.58;49.28;98651.19;4474679;32;33224;-67
2023/01/20 11:45:00;;;;;;;;;;;;;;;9.25;50.80;98644.31;4477609;32;34402;-66
2023/01/20 11:47:57;;;;;;;;;;;;;;;9.26;50.56;98648.66;4472862;32;34511;-66
2023/01/20 11:50:35;;;;;;;;;;;;;;;9.25;50.84;98652.31;4458700;32;34738;-66
2023/01/20 11:53:21;;;;;;;;;;;;;;;9.79;49.14;98651.97;4478610;32;34456;-66
2023/01/20 11:55:53;;;;;;;;;;;;;;;9.33;50.37;98647.16;4473443;32;35651;-66
2023/01/20 11:58:24;;;;;;;;;;;;;;;9.67;49.17;98646.88;4471289;32;34607;-67
2023/01/20 12:00:58;;;;;;;;;;;;;;;10.00;48.38;98649.19;4473633;32;33927;-67
2023/01/20 12:03:40;;;;;;;;;;;;;;;9.71;49.67;98645.63;4457667;32;33506;-68
2023/01/20 12:06:16;;;;;;;;;;;;;;;9.92;48.79;98642.84;4470211;32;34248;-65
2023/01/20 12:08:47;;;;;;;;;;;;;;;9.68;49.53;98645.88;4480572;32;34597;-68
2023/01/20 12:11:19;;;;;;;;;;;;;;;8.95;52.38;98637.94;4454585;32;33213;-67
2023/01/20 12:14:18;;;;;;;;;;;;;;;9.90;48.72;98648.34;4468012;32;33271;-67
2023/01/20 12:16:55;;;;;;;;;;;;;;;10.00;48.34;98643.84;4442083;32;34039;-66
2023/01/20 12:19:26;;;;;;;;;;;;;;;9.16;50.23;98656.62;4475776;32;34231;-66
2023/01/20 12:21:53;;;;;;;;;;;;;;;9.39;50.07;98653.78;4474560;32;34906;-66
2023/01/20 12:25:06;;;;;;;;;;;;;;;9.35;49.45;98652.37;4463737;32;33535;-67
2023/01/20 12:27:20;;;;;;;;;;;;;;;9.82;48.18;98658.84;4469122;32;34131;-68
2023/01/20 12:29:47;;;;;;;;;;;;;;;9.48;49.70;98658.34;4477696;32;33195;-67
2023/01/20 12:32:14;;;;;;;;;;;;;;;9.71;49.06;98658.97;4457388;32;34148;-66
2023/01/20 12:34:41;;;;;;;;;;;;;;;9.46;49.39;98654.94;4470920;32;33638;-66
2023/01/20 12:37:15;;;;;;;;;;;;;;;9.78;48.27;98654.78;4473648;32;34327;-68
2023/01/20 12:39:46;;;;;;;;;;;;;;;9.94;47.52;98652.41;4476828;32;34223;-66
2023/01/20 12:42:32;;;;;;;;;;;;;;;9.26;49.30;98654.00;4469734;32;34457;-68
2023/01/20 12:45:20;;;;;;;;;;;;;;;9.04;50.53;98657.69;4478206;32;33266;-68
2023/01/20 12:47:50;;;;;;;;;;;;;;;9.00;50.17;98658.94;4475205;32;34396;-66
2023/01/20 12:50:18;;;;;;;;;;;;;;;9.28;49.46;98662.75;4462656;32;34258;-65
2023/01/20 12:52:51;;;;;;;;;;;;;;;8.81;50.90;98667.66;4472584;32;34075;-66
2023/01/20 12:55:38;;;;;;;;;;;;;;;8.61;51.30;98664.00;4476088;32;34480;-65
2023/01/20 12:58:11;;;;;;;;;;;;;;;8.92;50.51;98658.72;4477935;32;33970;-69
2023/01/20 13:00:41;;;;;;;;;;;;;;;8.13;52.46;98665.22;4474319;32;34352;-66
2023/01/20 13:03:27;;;;;;;;;;;;;;;8.56;52.39;98674.19;4473306;32;34337;-68
2023/01/20 13:05:59;;;;;;;;;;;;;;;8.19;53.07;98677.22;4479100;32;34367;-66
2023/01/20 13:08:36;;;;;;;;;;;;;;;8.40;53.27;98682.63;4480896;32;35213;-66
2023/01/20 13:11:03;;;;;;;;;;;;;;;8.71;52.70;98672.91;4474205;32;34282;-67
2023/01/20 13:13:39;;;;;;;;;;;;;;;8.10;53.76;98675.31;4475376;32;34376;-67
2023/01/20 13:16:28;;;;;;;;;;;;;;;8.38;53.23;98693.44;4478108;32;33485;-67
2023/01/20 13:19:02;;;;;;;;;;;;;;;8.46;52.85;98690.13;4477751;32;34204;-66